Time;durP1;ratioP1;P1;durP2;ratioP2;P2;SDS_P1;SDS_P2;PMS_P1;PMS_P2;Temp;Humidity;BMP_temperature;BMP_pressure;BME280_temperature;BME280_humidity;BME280_pressure;Samples;Min_cycle;Max_cycle;Signal;HPM_P1;HPM_P2
2022/07/24 00:00:39;;;;;;;9.68;4.47;;;;;;;17.94;68.65;101060.31;5031701;28;20258;-76
2022/07/24 00:03:42;;;;;;;11.07;5.47;;;;;;;17.92;68.57;101058.72;5031524;28;20052;-76
2022/07/24 00:06:45;;;;;;;7.18;5.47;;;;;;;17.60;69.54;101059.28;5031636;28;20084;-76
2022/07/24 00:09:49;;;;;;;7.82;5.57;;;;;;;17.59;69.82;101060.25;5031423;28;20040;-76
2022/07/24 00:12:52;;;;;;;12.07;5.82;;;;;;;17.49;70.06;101053.94;5030636;28;20080;-76
2022/07/24 00:15:55;;;;;;;6.75;5.55;;;;;;;17.33;70.28;101057.69;5031692;28;20048;-76
2022/07/24 00:18:59;;;;;;;6.68;5.53;;;;;;;17.49;69.56;101064.53;5031106;28;20060;-76
2022/07/24 00:22:02;;;;;;;7.57;5.70;;;;;;;17.47;69.79;101061.13;5032640;28;20486;-76
2022/07/24 00:25:06;;;;;;;7.72;5.50;;;;;;;17.42;70.18;101058.81;5030748;28;20072;-76
2022/07/24 00:28:09;;;;;;;8.55;5.45;;;;;;;17.49;70.15;101056.59;5041913;28;20069;-76
2022/07/24 00:31:12;;;;;;;5.90;4.97;;;;;;;17.43;70.25;101052.59;5031792;28;20428;-77
2022/07/24 00:34:18;;;;;;;10.30;6.22;;;;;;;17.36;70.49;101057.47;5031203;28;20064;-77
2022/07/24 00:37:21;;;;;;;8.30;5.22;;;;;;;17.51;69.99;101062.59;5031691;28;20409;-77
2022/07/24 00:40:27;;;;;;;5.20;4.72;;;;;;;17.35;70.70;101063.69;5030999;28;20399;-77
2022/07/24 00:43:34;;;;;;;6.55;5.85;;;;;;;17.23;70.44;101064.59;5031404;28;20048;-77
2022/07/24 00:46:39;;;;;;;7.88;5.65;;;;;;;17.11;71.03;101068.13;5031397;28;20541;-77
2022/07/24 00:49:42;;;;;;;6.30;4.88;;;;;;;17.25;70.94;101062.69;5031461;28;20091;-77
2022/07/24 00:52:47;;;;;;;9.25;5.55;;;;;;;17.22;70.77;101056.78;5031532;28;20091;-76
2022/07/24 00:55:50;;;;;;;8.23;5.53;;;;;;;17.08;71.52;101052.47;5031104;28;20044;-77
2022/07/24 00:58:54;;;;;;;7.55;5.88;;;;;;;16.86;72.10;101058.44;5041036;28;20106;-76
2022/07/24 01:01:57;;;;;;;7.60;5.82;;;;;;;16.88;72.25;101053.88;5040632;28;20045;-76
2022/07/24 01:05:01;;;;;;;6.57;5.80;;;;;;;16.77;72.14;101059.06;5049726;28;20553;-76
2022/07/24 01:08:05;;;;;;;7.63;5.53;;;;;;;17.03;71.37;101063.34;5050389;28;20194;-76
2022/07/24 01:11:09;;;;;;;7.28;5.63;;;;;;;17.06;71.27;101054.38;5051529;28;20111;-76
2022/07/24 01:14:16;;;;;;;9.65;5.97;;;;;;;16.91;71.59;101054.53;5050637;28;20075;-76
2022/07/24 01:17:20;;;;;;;7.28;5.80;;;;;;;16.73;72.23;101055.78;5051912;28;20040;-76
2022/07/24 01:20:23;;;;;;;7.60;6.22;;;;;;;16.64;72.86;101056.41;5052168;28;20125;-76
2022/07/24 01:23:26;;;;;;;6.97;5.75;;;;;;;16.68;72.11;101048.16;5051514;28;20063;-76
2022/07/24 01:26:30;;;;;;;7.80;5.78;;;;;;;16.65;72.75;101050.16;5050873;28;20079;-76
2022/07/24 01:29:33;;;;;;;7.20;5.25;;;;;;;16.73;72.39;101053.13;5049671;28;20400;-76
2022/07/24 01:32:37;;;;;;;10.00;6.70;;;;;;;16.44;72.76;101052.50;5052107;28;20048;-76
2022/07/24 01:35:41;;;;;;;7.97;5.45;;;;;;;16.58;72.67;101056.81;5051910;28;20044;-76
2022/07/24 01:38:45;;;;;;;7.35;6.10;;;;;;;16.74;72.08;101052.16;5051566;28;20048;-76
2022/07/24 01:41:48;;;;;;;8.68;5.90;;;;;;;16.73;72.22;101047.84;5051559;28;20059;-75
2022/07/24 01:44:51;;;;;;;6.07;5.43;;;;;;;16.62;72.91;101051.22;5052008;28;20127;-76
2022/07/24 01:47:55;;;;;;;11.45;6.05;;;;;;;16.41;73.56;101050.06;5052397;28;20411;-76
2022/07/24 01:50:58;;;;;;;8.57;6.57;;;;;;;16.38;73.73;101053.75;5050715;28;20087;-76
2022/07/24 01:54:02;;;;;;;9.15;6.32;;;;;;;16.55;73.13;101051.75;5052046;28;20067;-76
2022/07/24 01:57:05;;;;;;;12.60;7.00;;;;;;;16.47;73.50;101050.50;5052191;28;20102;-75
2022/07/24 02:00:13;;;;;;;8.70;5.82;;;;;;;16.38;73.66;101056.41;5052124;28;20091;-75
2022/07/24 02:03:20;;;;;;;8.52;5.70;;;;;;;16.26;74.17;101058.06;5051833;28;20573;-75
2022/07/24 02:06:23;;;;;;;7.28;6.55;;;;;;;16.11;74.78;101058.25;5052409;28;20048;-76
2022/07/24 02:09:27;;;;;;;8.18;6.03;;;;;;;16.08;75.21;101058.47;5051795;28;20095;-75
2022/07/24 02:12:30;;;;;;;9.10;6.25;;;;;;;16.12;74.75;101054.69;5051980;28;20110;-75
2022/07/24 02:15:33;;;;;;;7.05;6.22;;;;;;;16.06;74.79;101055.09;5052370;28;20088;-76
2022/07/24 02:18:37;;;;;;;7.47;5.90;;;;;;;16.01;75.15;101063.31;5051927;28;20071;-76
2022/07/24 02:21:40;;;;;;;6.18;5.53;;;;;;;15.99;74.78;101065.22;5051373;28;20048;-76
2022/07/24 02:24:43;;;;;;;8.88;5.97;;;;;;;16.19;74.13;101053.31;5051262;28;20087;-76
2022/07/24 02:27:47;;;;;;;7.13;6.03;;;;;;;16.11;74.20;101063.53;5054388;28;20064;-75
2022/07/24 02:30:51;;;;;;;7.00;6.30;;;;;;;16.18;74.15;101054.28;5054464;28;20055;-75
2022/07/24 02:33:54;;;;;;;7.90;6.53;;;;;;;15.96;75.16;101068.06;5055356;28;20102;-75
2022/07/24 02:36:57;;;;;;;8.45;6.88;;;;;;;15.98;75.00;101063.50;5055477;28;20515;-75
2022/07/24 02:40:01;;;;;;;8.65;5.95;;;;;;;15.98;74.68;101064.34;5055055;28;20043;-75
2022/07/24 02:43:04;;;;;;;9.48;5.70;;;;;;;15.97;75.01;101067.94;5055229;28;20043;-75
2022/07/24 02:46:08;;;;;;;7.40;5.63;;;;;;;16.05;75.16;101064.81;5055459;28;20040;-75
2022/07/24 02:49:12;;;;;;;9.43;6.65;;;;;;;16.02;75.23;101071.13;5055534;28;20071;-75
2022/07/24 02:52:15;;;;;;;8.02;6.50;;;;;;;15.93;75.22;101070.88;5054437;28;20043;-75
2022/07/24 02:55:18;;;;;;;9.00;6.15;;;;;;;15.96;75.19;101066.25;5054704;28;20048;-77
2022/07/24 02:58:22;;;;;;;7.75;6.18;;;;;;;15.99;74.97;101070.50;5054867;28;20048;-76
2022/07/24 03:01:26;;;;;;;7.25;6.55;;;;;;;16.05;74.68;101070.09;5054952;28;20047;-76
2022/07/24 03:04:29;;;;;;;11.15;6.28;;;;;;;15.84;75.83;101071.50;5054761;28;20056;-76
2022/07/24 03:07:33;;;;;;;8.38;6.57;;;;;;;15.73;76.36;101072.19;5054783;28;20515;-76
2022/07/24 03:10:37;;;;;;;6.55;5.88;;;;;;;15.72;76.48;101066.06;5054470;28;20083;-76
2022/07/24 03:13:40;;;;;;;8.00;6.47;;;;;;;15.78;76.26;101064.81;5054760;28;20071;-76
2022/07/24 03:16:43;;;;;;;8.45;7.03;;;;;;;15.66;76.76;101073.50;5054887;28;20063;-76
2022/07/24 03:19:46;;;;;;;8.05;6.22;;;;;;;15.68;76.66;101072.50;5054632;28;20102;-76
2022/07/24 03:22:50;;;;;;;6.63;5.93;;;;;;;15.98;75.48;101069.63;5054472;28;20094;-76
2022/07/24 03:25:54;;;;;;;7.25;6.53;;;;;;;15.92;75.66;101075.31;5053858;28;20094;-76
2022/07/24 03:28:57;;;;;;;7.40;6.70;;;;;;;15.74;75.91;101071.25;5054212;28;20144;-76
2022/07/24 03:32:01;;;;;;;8.45;6.82;;;;;;;15.64;76.72;101070.97;5053966;28;20043;-76
2022/07/24 03:35:05;;;;;;;7.20;6.45;;;;;;;15.75;76.30;101071.13;5054304;28;20410;-76
2022/07/24 03:38:08;;;;;;;8.18;6.43;;;;;;;15.69;76.12;101068.91;5053967;28;20048;-76
2022/07/24 03:41:11;;;;;;;12.20;7.45;;;;;;;15.77;76.39;101068.41;5053889;28;20113;-76
2022/07/24 03:44:15;;;;;;;7.32;6.00;;;;;;;15.89;76.39;101064.97;5053691;28;20063;-76
2022/07/24 03:47:18;;;;;;;7.88;7.05;;;;;;;15.83;76.59;101069.81;5053836;28;20043;-76
2022/07/24 03:50:22;;;;;;;7.60;6.20;;;;;;;15.68;77.16;101069.84;5053977;28;20060;-76
2022/07/24 03:53:25;;;;;;;6.55;5.95;;;;;;;15.75;76.77;101070.28;5053318;28;20052;-76
2022/07/24 03:56:29;;;;;;;9.15;6.10;;;;;;;15.80;76.90;101069.06;5053346;28;20044;-75
2022/07/24 03:59:32;;;;;;;7.32;6.40;;;;;;;15.83;76.51;101075.94;5052350;28;20048;-75
2022/07/24 04:02:35;;;;;;;8.82;6.90;;;;;;;15.70;77.17;101072.41;5053870;28;20043;-75
2022/07/24 04:05:39;;;;;;;7.22;6.47;;;;;;;15.59;77.82;101073.03;5053452;28;20044;-75
2022/07/24 04:08:42;;;;;;;8.15;7.07;;;;;;;15.60;77.83;101080.00;5053542;28;20132;-75
2022/07/24 04:11:46;;;;;;;9.32;6.40;;;;;;;15.76;77.01;101072.84;5053429;28;20060;-75
2022/07/24 04:14:49;;;;;;;8.20;7.22;;;;;;;15.69;77.51;101073.31;5053720;28;20043;-75
2022/07/24 04:17:53;;;;;;;10.25;6.40;;;;;;;15.81;77.04;101075.16;5053703;28;20044;-75
2022/07/24 04:20:56;;;;;;;7.75;6.82;;;;;;;15.72;77.40;101081.03;5053799;28;20103;-75
2022/07/24 04:24:00;;;;;;;7.13;6.43;;;;;;;15.70;77.53;101075.88;5063661;28;20457;-76
2022/07/24 04:27:03;;;;;;;9.88;7.30;;;;;;;15.76;77.64;101074.63;5070933;28;20113;-76
2022/07/24 04:30:09;;;;;;;8.60;7.22;;;;;;;15.74;77.60;101081.78;5071588;28;20677;-76
2022/07/24 04:33:13;;;;;;;7.47;6.88;;;;;;;15.76;77.93;101077.25;5071035;28;20106;-76
2022/07/24 04:36:19;;;;;;;8.65;6.43;;;;;;;15.87;77.35;101071.28;5072123;28;20119;-76
2022/07/24 04:39:26;;;;;;;7.25;5.85;;;;;;;15.97;77.12;101078.50;5072300;28;20046;-76
2022/07/24 04:42:30;;;;;;;10.18;6.72;;;;;;;16.00;77.17;101080.91;5072497;28;20055;-76
2022/07/24 04:45:34;;;;;;;7.90;6.70;;;;;;;16.01;77.15;101069.41;5072906;28;20090;-76
2022/07/24 04:48:37;;;;;;;10.77;6.40;;;;;;;16.12;77.01;101071.34;5036322;28;20056;-76
2022/07/24 04:51:41;;;;;;;10.25;6.57;;;;;;;15.99;77.21;101081.03;5032634;28;20048;-76
2022/07/24 04:54:46;;;;;;;10.50;7.03;;;;;;;16.15;76.73;101080.88;5032863;28;20052;-78
2022/07/24 04:57:52;;;;;;;7.10;6.40;;;;;;;15.97;77.54;101088.19;5032930;28;20057;-76
2022/07/24 05:00:56;;;;;;;7.22;6.47;;;;;;;15.95;77.48;101083.03;5031974;28;20072;-76
2022/07/24 05:04:01;;;;;;;8.52;6.57;;;;;;;16.07;76.84;101091.06;5051487;28;20052;-76
2022/07/24 05:07:04;;;;;;;10.73;7.20;;;;;;;15.98;77.52;101089.88;5052282;28;20125;-76
2022/07/24 05:10:09;;;;;;;8.80;6.25;;;;;;;16.35;76.12;101087.44;5052927;28;20043;-76
2022/07/24 05:13:12;;;;;;;8.27;6.60;;;;;;;16.49;75.22;101084.69;5052670;28;20106;-76
2022/07/24 05:16:15;;;;;;;7.80;6.90;;;;;;;16.48;75.22;101089.13;5052636;28;20110;-76
2022/07/24 05:19:19;;;;;;;6.75;6.00;;;;;;;16.48;74.70;101093.56;5052638;28;20102;-76
2022/07/24 05:22:22;;;;;;;13.30;6.50;;;;;;;16.70;73.93;101088.50;5052592;28;20536;-76
2022/07/24 05:25:26;;;;;;;11.68;7.10;;;;;;;16.93;73.03;101089.56;5052077;28;20048;-76
2022/07/24 05:28:29;;;;;;;8.00;6.40;;;;;;;16.95;73.59;101090.31;5047134;28;20566;-76
2022/07/24 05:31:37;;;;;;;8.75;6.28;;;;;;;16.78;74.19;101084.53;5032263;28;20044;-75
2022/07/24 05:34:46;;;;;;;7.72;5.97;;;;;;;16.99;73.65;101079.53;5028443;28;20103;-76
2022/07/24 05:37:52;;;;;;;10.10;6.57;;;;;;;17.05;73.02;101081.75;5037727;28;20063;-78
2022/07/24 05:41:03;;;;;;;10.18;5.95;;;;;;;17.19;72.75;101082.44;5045433;28;20047;-77
2022/07/24 05:44:07;;;;;;;6.47;5.53;;;;;;;17.33;72.21;101084.13;5044485;28;20303;-76
2022/07/24 05:47:16;;;;;;;6.90;5.97;;;;;;;17.43;71.51;101076.38;5046117;28;20345;-77
2022/07/24 05:50:21;;;;;;;8.98;6.45;;;;;;;17.46;71.24;101076.16;5047502;28;20082;-76
2022/07/24 05:53:27;;;;;;;7.75;6.63;;;;;;;17.51;71.08;101068.72;5056323;28;20465;-76
2022/07/24 05:56:31;;;;;;;7.38;6.28;;;;;;;17.55;70.67;101069.34;5054907;28;20339;-75
2022/07/24 05:59:35;;;;;;;8.27;5.78;;;;;;;17.50;71.52;101068.84;5049565;28;20138;-76
2022/07/24 06:02:39;;;;;;;8.68;6.70;;;;;;;17.46;71.79;101062.09;5041922;28;20099;-78
2022/07/24 06:05:42;;;;;;;7.03;5.88;;;;;;;17.57;72.26;101062.16;5042132;28;20158;-79
2022/07/24 06:08:46;;;;;;;7.47;6.15;;;;;;;17.54;72.05;101067.66;5041282;28;20036;-78
2022/07/24 06:11:50;;;;;;;8.48;5.93;;;;;;;17.69;71.66;101066.53;5047397;28;20086;-78
2022/07/24 06:14:54;;;;;;;9.55;6.57;;;;;;;17.74;71.02;101059.13;5046234;28;20044;-76
2022/07/24 06:17:57;;;;;;;8.13;5.38;;;;;;;17.84;71.43;101054.88;5041991;28;20531;-78
2022/07/24 06:21:01;;;;;;;7.07;6.05;;;;;;;17.88;71.44;101052.84;5043731;28;20102;-78
2022/07/24 06:24:04;;;;;;;6.13;5.50;;;;;;;18.10;70.44;101052.06;5041087;28;20446;-78
2022/07/24 06:27:10;;;;;;;5.97;5.18;;;;;;;18.34;68.90;101058.13;5042889;28;20133;-78
2022/07/24 06:30:16;;;;;;;6.78;5.20;;;;;;;18.54;67.67;101053.13;5047977;28;20442;-79
2022/07/24 06:33:22;;;;;;;9.77;6.13;;;;;;;18.68;67.23;101050.22;4691204;28;10000044;-79
2022/07/24 06:36:26;;;;;;;6.57;5.65;;;;;;;18.77;66.96;101052.19;5041108;28;20035;-78
2022/07/24 06:39:30;;;;;;;7.80;5.43;;;;;;;18.64;67.18;101048.78;5044356;28;20130;-78
2022/07/24 06:42:34;;;;;;;6.43;5.53;;;;;;;18.75;67.06;101040.88;5045378;28;20075;-77
2022/07/24 06:45:37;;;;;;;5.80;5.00;;;;;;;18.77;67.27;101035.47;5045052;28;20431;-78
2022/07/24 06:48:41;;;;;;;8.80;5.57;;;;;;;18.84;67.41;101038.47;5038747;28;20031;-78
2022/07/24 06:51:47;;;;;;;8.85;4.40;;;;;;;19.01;66.58;101037.97;5043624;28;20499;-77
2022/07/24 06:54:51;;;;;;;5.55;4.95;;;;;;;19.04;66.84;101032.41;5043206;28;20052;-78
2022/07/24 06:57:58;;;;;;;7.32;4.80;;;;;;;19.21;65.10;101036.41;5041293;28;20084;-78
2022/07/24 07:01:01;;;;;;;6.03;4.40;;;;;;;19.28;64.69;101029.63;5039897;28;20057;-78
2022/07/24 07:04:04;;;;;;;5.88;4.75;;;;;;;19.40;64.10;101041.03;5041170;28;20855;-77
2022/07/24 07:07:08;;;;;;;6.15;4.45;;;;;;;19.49;63.53;101041.13;5044252;28;20044;-81
2022/07/24 07:10:13;;;;;;;6.63;3.80;;;;;;;19.57;62.52;101035.19;5088725;22;20113;-70
2022/07/24 07:13:16;;;;;;;6.60;3.90;;;;;;;19.65;63.10;101034.59;5090172;28;20093;-71
2022/07/24 07:16:19;;;;;;;7.82;4.13;;;;;;;19.74;63.31;101037.31;5086806;28;20084;-71
2022/07/24 07:19:23;;;;;;;4.63;3.67;;;;;;;19.82;62.75;101034.06;5086857;28;20093;-71
2022/07/24 07:22:26;;;;;;;8.20;4.97;;;;;;;19.92;62.15;101036.78;5087618;28;20046;-71
2022/07/24 07:25:29;;;;;;;5.32;3.70;;;;;;;19.99;61.67;101032.63;5082157;28;20121;-74
2022/07/24 07:28:33;;;;;;;7.07;3.58;;;;;;;20.08;61.69;101031.88;5070364;28;20070;-69
2022/07/24 07:31:37;;;;;;;5.88;3.58;;;;;;;20.28;61.48;101029.34;5069837;28;20070;-71
2022/07/24 07:34:40;;;;;;;7.10;3.58;;;;;;;20.31;60.79;101029.06;5069622;28;20105;-71
2022/07/24 07:37:47;;;;;;;5.10;3.90;;;;;;;20.42;60.25;101034.28;5060886;28;20500;-70
2022/07/24 07:40:50;;;;;;;5.13;3.45;;;;;;;20.50;59.45;101031.84;5066542;28;20048;-70
2022/07/24 07:57:05;;;;;;;5.07;3.58;;;;;;;20.99;59.25;101008.97;5034129;28;20340;-70
2022/07/24 08:00:11;;;;;;;6.50;3.47;;;;;;;21.01;58.16;101009.69;5018862;28;20044;-73
2022/07/24 08:03:18;;;;;;;5.55;3.15;;;;;;;21.12;57.84;101006.94;5016830;28;20624;-71
2022/07/24 08:06:21;;;;;;;4.97;3.40;;;;;;;21.19;58.13;101007.22;5017851;28;20060;-73
2022/07/24 08:09:26;;;;;;;7.18;3.28;;;;;;;21.39;57.76;101000.13;5016674;28;20068;-67
2022/07/24 08:12:29;;;;;;;4.38;3.67;;;;;;;21.50;56.40;100989.34;5006059;28;20578;-70
2022/07/24 08:15:33;;;;;;;4.78;3.50;;;;;;;21.49;56.18;100993.00;5023668;28;20180;-68
2022/07/24 08:18:36;;;;;;;5.18;3.47;;;;;;;21.56;56.75;100990.59;5022929;28;20103;-66
2022/07/24 08:21:39;;;;;;;6.47;3.60;;;;;;;21.70;56.31;100989.38;5022124;28;20108;-66
2022/07/24 08:24:44;;;;;;;4.72;3.00;;;;;;;21.91;55.64;100987.34;5010059;28;20117;-67
2022/07/24 08:27:48;;;;;;;5.47;3.33;;;;;;;21.99;55.17;100987.50;5020233;28;20040;-67
2022/07/24 08:30:51;;;;;;;6.43;3.33;;;;;;;22.29;53.77;100990.94;5021873;28;20560;-67
2022/07/24 08:33:55;;;;;;;6.10;3.67;;;;;;;22.41;53.18;100979.13;5011128;28;20064;-66
2022/07/24 08:36:58;;;;;;;6.28;3.55;;;;;;;22.43;53.03;100971.84;5021711;28;20180;-66
2022/07/24 08:40:04;;;;;;;6.63;3.47;;;;;;;22.44;53.23;100972.69;5024035;28;20088;-66
2022/07/24 08:43:08;;;;;;;4.63;3.30;;;;;;;22.52;52.90;100975.44;5012451;28;20049;-66
2022/07/24 08:46:14;;;;;;;6.07;3.45;;;;;;;22.61;52.95;100968.41;5022990;28;20418;-66
2022/07/24 08:49:20;;;;;;;6.80;3.55;;;;;;;22.68;52.80;100970.31;4995836;28;20036;-80
2022/07/24 08:52:24;;;;;;;4.95;3.15;;;;;;;22.77;52.01;100973.91;5001746;28;20069;-72
2022/07/24 08:55:29;;;;;;;5.35;4.22;;;;;;;22.84;51.93;100963.50;5002996;28;20056;-72
2022/07/24 08:58:37;;;;;;;5.97;3.60;;;;;;;22.93;50.65;100959.94;4991306;28;20181;-69
2022/07/24 09:01:40;;;;;;;6.82;3.67;;;;;;;22.91;51.59;100953.91;4991266;28;20109;-71
2022/07/24 09:04:47;;;;;;;4.50;3.42;;;;;;;23.14;51.52;100959.72;4991500;28;20505;-70
2022/07/24 09:08:05;;;;;;;7.35;3.90;;;;;;;23.48;52.67;100951.00;4990266;28;20096;-71
2022/07/24 09:11:10;;;;;;;5.85;3.40;;;;;;;23.53;48.69;100956.72;4969905;28;20096;-71
2022/07/24 09:14:31;;;;;;;8.00;3.72;;;;;;;23.54;48.71;100953.06;4998616;28;20126;-73
2022/07/24 09:17:35;;;;;;;5.55;3.10;;;;;;;23.76;47.76;100939.25;4996511;28;20523;-74
2022/07/24 09:20:38;;;;;;;5.50;2.95;;;;;;;23.80;46.87;100932.63;5004505;28;20052;-72
2022/07/24 09:23:42;;;;;;;145.48;10.82;;;;;;;23.81;45.82;100931.63;4991576;28;20045;-73
2022/07/24 09:26:57;;;;;;;6.28;3.30;;;;;;;24.14;44.05;100929.13;4992067;28;20133;-73
2022/07/24 09:30:03;;;;;;;8.35;3.50;;;;;;;24.30;44.98;100920.38;4979356;28;20049;-72
2022/07/24 09:33:15;;;;;;;5.97;3.45;;;;;;;24.20;45.25;100919.66;4991401;28;20081;-79
2022/07/24 09:36:19;;;;;;;6.45;3.88;;;;;;;24.28;47.75;100917.00;4991485;28;20089;-66
2022/07/24 09:39:27;;;;;;;5.65;3.28;;;;;;;24.64;41.40;100909.69;4991050;28;20077;-68
2022/07/24 09:42:38;;;;;;;6.43;3.50;;;;;;;24.46;40.70;100912.44;4991622;28;20053;-67
2022/07/24 09:45:55;;;;;;;5.30;3.55;;;;;;;24.83;41.98;100904.06;4983049;28;20802;-68
2022/07/24 09:49:00;;;;;;;4.88;3.63;;;;;;;24.88;42.23;100900.03;4990050;28;20045;-67
2022/07/24 09:52:16;;;;;;;5.75;3.55;;;;;;;24.87;44.61;100895.69;4991442;28;20045;-68
2022/07/24 09:55:23;;;;;;;3.78;2.75;;;;;;;24.66;42.17;100890.78;4990632;28;20473;-68
2022/07/24 09:58:27;;;;;;;5.50;2.97;;;;;;;24.79;43.06;100888.47;4991019;28;20422;-68
2022/07/24 10:01:35;;;;;;;4.65;2.97;;;;;;;24.91;42.54;100886.34;4991651;28;20506;-77
2022/07/24 10:04:42;;;;;;;4.90;3.17;;;;;;;25.31;42.15;100877.53;4967492;28;20077;-79
2022/07/24 10:08:06;;;;;;;4.10;3.15;;;;;;;25.68;41.76;100878.84;4985158;28;20041;-78
2022/07/24 10:11:12;;;;;;;6.35;3.00;;;;;;;25.81;40.81;100889.06;4989007;28;20069;-77
2022/07/24 10:14:18;;;;;;;5.35;3.53;;;;;;;25.85;41.02;100883.19;4988820;28;20511;-85
2022/07/24 10:17:49;;;;;;;4.40;3.15;;;;;;;25.83;40.87;100870.97;4989201;28;20076;-77
2022/07/24 10:21:06;;;;;;;4.15;3.13;;;;;;;25.71;41.68;100878.50;4984380;28;20065;-77
2022/07/24 10:24:12;;;;;;;6.45;3.78;;;;;;;25.80;41.53;100868.59;4971985;28;20067;-79
2022/07/24 10:27:21;;;;;;;7.13;3.15;;;;;;;25.60;40.95;100871.66;4976523;28;20134;-78
2022/07/24 10:30:25;;;;;;;6.95;3.38;;;;;;;25.73;41.19;100861.25;4988944;28;20923;-78
2022/07/24 10:33:29;;;;;;;6.20;3.58;;;;;;;25.67;40.33;100855.75;4986329;28;20096;-77
2022/07/24 10:36:39;;;;;;;6.35;3.38;;;;;;;25.90;40.20;100851.34;4989728;28;20049;-74
2022/07/24 10:40:20;;;;;;;7.13;3.40;;;;;;;26.06;40.29;100853.13;4989913;28;20088;-79
2022/07/24 10:43:24;;;;;;;7.13;3.50;;;;;;;26.09;40.04;100858.16;4989388;28;20041;-74
2022/07/24 10:46:27;;;;;;;4.90;3.22;;;;;;;25.91;40.23;100838.78;4966792;28;20101;-74
2022/07/24 10:49:53;;;;;;;10.90;3.47;;;;;;;26.03;41.87;100839.25;4989024;28;20424;-75
2022/07/24 10:53:21;;;;;;;6.10;3.55;;;;;;;26.29;39.09;100830.94;4975352;28;20145;-74
2022/07/24 10:56:38;;;;;;;8.52;3.65;;;;;;;26.20;40.43;100831.00;4989404;28;20054;-74
2022/07/24 10:59:45;;;;;;;7.30;4.65;;;;;;;26.19;40.54;100817.75;4989155;28;20049;-76
2022/07/24 11:03:07;;;;;;;6.32;3.60;;;;;;;26.32;39.99;100819.84;4989773;28;20092;-71
2022/07/24 11:06:12;;;;;;;8.95;3.80;;;;;;;26.41;39.17;100816.13;4986683;28;20045;-71
2022/07/24 11:09:18;;;;;;;5.85;3.60;;;;;;;26.35;39.09;100816.81;4989331;28;20172;-78
2022/07/24 11:12:30;;;;;;;4.93;3.35;;;;;;;26.42;37.98;100804.41;4985518;28;20049;-82
2022/07/24 11:16:13;;;;;;;6.25;3.08;;;;;;;26.54;39.51;100799.47;4983767;28;20585;-72
2022/07/24 11:19:16;;;;;;;7.53;3.40;;;;;;;26.82;39.09;100797.94;4981904;28;20048;-76
2022/07/24 11:22:38;;;;;;;4.57;3.42;;;;;;;26.70;38.31;100787.81;4982938;28;20460;-74
2022/07/24 11:25:42;;;;;;;7.32;3.15;;;;;;;26.91;38.69;100790.66;4990553;28;20049;-80
2022/07/24 11:29:24;;;;;;;6.28;3.47;;;;;;;27.12;37.76;100793.50;4990268;28;20118;-78
2022/07/24 11:32:27;;;;;;;4.45;3.17;;;;;;;27.11;36.75;100791.81;4992448;28;20049;-76
2022/07/24 11:35:35;;;;;;;4.95;3.10;;;;;;;26.85;36.96;100786.84;4990102;28;20120;-82
2022/07/24 11:38:39;;;;;;;7.45;3.28;;;;;;;26.74;36.44;100778.38;4991353;28;20053;-79
2022/07/24 11:41:50;;;;;;;4.20;2.92;;;;;;;27.16;36.17;100760.97;4988985;28;20114;-81
2022/07/24 11:44:53;;;;;;;6.68;3.28;;;;;;;27.60;35.96;100752.94;4992649;28;20470;-77
2022/07/24 11:47:57;;;;;;;4.65;3.50;;;;;;;27.57;35.44;100753.31;4992284;28;20042;-82
2022/07/24 11:51:05;;;;;;;5.82;3.25;;;;;;;27.28;34.82;100740.69;4992759;28;20088;-79
2022/07/24 11:54:12;;;;;;;4.72;3.40;;;;;;;27.50;35.53;100738.94;4994454;28;20419;-81
2022/07/24 11:57:40;;;;;;;4.32;3.00;;;;;;;28.03;35.50;100731.56;4993327;28;20045;-80
2022/07/24 12:00:43;;;;;;;6.10;3.35;;;;;;;28.14;35.35;100732.94;4992369;28;20046;-73
2022/07/24 12:03:57;;;;;;;5.30;4.07;;;;;;;28.16;34.82;100730.91;4992053;28;20100;-78
2022/07/24 12:07:05;;;;;;;4.90;3.60;;;;;;;27.94;35.68;100730.84;4992264;28;20042;-77
2022/07/24 12:10:09;;;;;;;4.13;2.95;;;;;;;27.73;35.55;100725.41;4992184;28;20072;-77
2022/07/24 12:13:12;;;;;;;7.03;3.33;;;;;;;27.73;35.71;100728.09;4991965;28;20045;-75
2022/07/24 12:16:28;;;;;;;6.78;3.58;;;;;;;27.72;35.46;100712.97;4991499;28;20737;-77
2022/07/24 12:19:32;;;;;;;5.18;3.80;;;;;;;27.91;35.68;100717.78;4991969;28;20053;-78
2022/07/24 12:22:35;;;;;;;4.50;2.83;;;;;;;27.89;35.83;100714.47;4991613;28;20041;-78
2022/07/24 12:25:40;;;;;;;8.88;3.50;;;;;;;27.97;35.66;100706.28;4989030;28;20045;-80
2022/07/24 12:28:44;;;;;;;4.80;3.10;;;;;;;27.98;34.54;100707.97;4977657;28;20085;-80
2022/07/24 12:31:47;;;;;;;4.88;3.20;;;;;;;28.03;33.80;100710.06;4991869;28;20057;-78
2022/07/24 12:34:50;;;;;;;7.40;3.45;;;;;;;28.16;33.46;100699.47;4993745;28;20097;-75
2022/07/24 12:37:55;;;;;;;4.70;2.90;;;;;;;28.32;32.85;100698.38;4993195;28;20092;-75
2022/07/24 12:41:04;;;;;;;5.03;3.50;;;;;;;28.62;32.70;100690.19;4994056;28;20056;-77
2022/07/24 12:44:07;;;;;;;5.63;3.67;;;;;;;28.69;31.73;100693.78;4993446;28;20123;-75
2022/07/24 12:47:15;;;;;;;6.78;3.95;;;;;;;28.68;31.94;100682.16;4993364;28;20053;-75
2022/07/24 12:50:18;;;;;;;6.60;3.65;;;;;;;28.81;31.89;100676.06;4993608;28;20077;-76
2022/07/24 12:53:22;;;;;;;6.25;3.60;;;;;;;29.07;32.59;100675.47;4993270;28;20049;-76
2022/07/24 12:56:35;;;;;;;3.90;3.50;;;;;;;29.46;31.96;100673.16;4993110;28;20116;-76
2022/07/24 12:59:46;;;;;;;5.97;3.17;;;;;;;29.65;30.67;100675.16;4993203;28;20061;-80
2022/07/24 13:02:50;;;;;;;5.00;4.25;;;;;;;29.75;30.46;100662.13;4993495;28;20045;-74
2022/07/24 13:05:56;;;;;;;6.10;3.80;;;;;;;29.83;29.84;100661.91;4993320;28;20041;-75
2022/07/24 13:09:00;;;;;;;5.93;3.40;;;;;;;29.85;29.41;100651.78;4993191;28;20528;-76
2022/07/24 13:12:05;;;;;;;5.38;3.67;;;;;;;30.38;29.71;100650.19;4992947;28;20641;-76
2022/07/24 13:15:09;;;;;;;5.07;4.10;;;;;;;30.71;28.84;100656.44;4993236;28;20071;-75
2022/07/24 13:18:12;;;;;;;4.85;3.42;;;;;;;30.88;28.40;100645.22;4992857;28;20045;-75
2022/07/24 13:21:18;;;;;;;6.68;3.53;;;;;;;30.70;28.72;100643.97;4979385;28;20072;-75
2022/07/24 13:24:21;;;;;;;4.90;3.30;;;;;;;30.73;28.69;100631.94;4992713;28;20042;-77
2022/07/24 13:27:24;;;;;;;4.15;3.35;;;;;;;30.78;29.38;100635.69;4988191;28;20140;-77
2022/07/24 13:30:28;;;;;;;3.60;2.80;;;;;;;30.94;28.52;100633.59;4988778;28;20057;-78
2022/07/24 13:33:31;;;;;;;5.00;3.47;;;;;;;31.10;28.47;100630.41;4988975;28;20108;-77
2022/07/24 13:36:35;;;;;;;4.18;3.35;;;;;;;31.36;27.46;100623.28;4970036;28;20056;-78
2022/07/24 13:39:40;;;;;;;5.10;3.47;;;;;;;31.42;27.71;100615.16;4983515;28;20041;-78
2022/07/24 13:42:43;;;;;;;4.57;3.20;;;;;;;31.53;27.55;100616.38;4987151;28;20053;-78
2022/07/24 13:45:46;;;;;;;6.07;3.55;;;;;;;31.84;26.41;100603.91;4989018;28;20041;-79
2022/07/24 13:48:51;;;;;;;5.00;3.30;;;;;;;32.43;26.23;100597.25;4988449;28;20072;-78
2022/07/24 13:51:55;;;;;;;4.80;3.58;;;;;;;32.71;26.27;100591.38;4989786;28;20100;-78
2022/07/24 13:54:58;;;;;;;3.80;3.17;;;;;;;32.96;24.94;100594.00;4977367;28;20072;-75
2022/07/24 13:58:01;;;;;;;6.07;3.70;;;;;;;33.34;24.79;100590.22;4989434;28;20104;-76
2022/07/24 14:01:06;;;;;;;3.83;3.22;;;;;;;33.60;24.78;100593.66;4989335;28;20053;-77
2022/07/24 14:04:09;;;;;;;6.07;3.22;;;;;;;34.46;23.14;100570.56;4989816;28;20036;-78
2022/07/24 14:07:13;;;;;;;9.45;3.40;;;;;;;35.23;22.99;100570.38;4989485;28;20077;-79
2022/07/24 14:10:17;;;;;;;9.00;3.75;;;;;;;35.75;21.67;100569.44;4989094;28;20076;-80
2022/07/24 14:13:24;;;;;;;7.57;3.47;;;;;;;37.99;18.84;100562.56;4986352;28;20162;-78
2022/07/24 14:16:29;;;;;;;5.35;3.80;;;;;;;40.20;16.51;100552.94;4979587;28;20502;-79
2022/07/24 14:19:33;;;;;;;4.45;3.42;;;;;;;41.25;15.80;100545.72;4988878;28;20127;-77
2022/07/24 14:22:40;;;;;;;5.60;3.63;;;;;;;40.01;15.79;100540.06;4988892;28;20077;-79
2022/07/24 14:25:44;;;;;;;6.22;3.55;;;;;;;41.97;14.70;100525.97;4976241;28;20542;-78
2022/07/24 14:28:47;;;;;;;4.72;3.60;;;;;;;43.20;13.86;100530.84;4988434;28;20049;-76
2022/07/24 14:31:51;;;;;;;5.75;3.92;;;;;;;43.52;13.83;100519.06;4988512;28;20423;-77
2022/07/24 14:34:55;;;;;;;4.70;3.60;;;;;;;43.60;13.66;100514.81;4988862;28;20100;-76